• Join FlightAware (Why Join?)
  • Login
  • US Flag 
12:17AM EDT


 

Airport Tracker/Info


-or-


 

Live Flight TrackerFlight Track Log ✈ UAL4335 ✈ 20.04.2013 ✈ KIAH - KPIT

Flight Track Log - Related Links

Times and Time Zones

All times are in EDT time to prevent confusion due to time zone crossing. See the UAL4335 flight status page for this flight to view local times or setup timezone preferences in your user account.

Time Position Orientation Groundspeed Altitude Reporting Facility
EDT Latitude Longitude Course Direction KTS MPH feet Rate Location/Type
03:33PM 29.9569 -95.3369 90° East 167 192 800  Level Houston Center
03:35PM 29.9503 -95.2653 96° East 230 265 3,000 2,340 Climbing Houston Center
03:36PM 29.9834 -94.9093 90° East  Level FlightAware Approximate
03:36PM 29.9531 -95.1806 88° East 243 280 6,100  Level Houston Center
03:37PM 29.9834 -94.7680 90° East  Level FlightAware Approximate
03:37PM 29.9589 -95.0944 86° East 267 307 8,500  Level Houston Center
03:38PM 29.9833 -94.6266 90° East  Level FlightAware Approximate
03:38PM 29.9639 -95.0011 86° East 286 329 10,800  Level Houston Center
03:39PM 29.9834 -94.4853 90° East  Level FlightAware Approximate
03:39PM 29.9703 -94.8867 86° East 318 366 12,200  Level Houston Center
03:40PM 29.9764 -94.7817 86° East 359 413 13,500 1,260 Climbing Houston Center
03:41PM 29.9828 -94.6597 87° East 377 434 14,900 1,440 Climbing Houston Center
03:42PM 29.9892 -94.5075 87° East 394 453 16,500 1,320 Climbing Houston Center
03:43PM 29.9939 -94.3836 87° East 405 466 17,700 1,080 Climbing Houston Center
03:44PM 30.0019 -94.2508 86° East 415 478 18,800 1,200 Climbing Houston Center
03:45PM 30.0200 -94.1197 81° East 415 478 20,200 1,440 Climbing Houston Center
03:46PM 30.0356 -93.9858 82° East 421 484 21,800 1,620 Climbing Houston Center
03:47PM 30.0556 -93.8275 82° East 420 483 23,600 1,560 Climbing Houston Center
03:48PM 30.0714 -93.6942 82° East 425 489 25,100 1,440 Climbing Houston Center
03:49PM 30.0875 -93.5611 82° East 423 487 26,600 1,080 Climbing Houston Center
03:50PM 30.1022 -93.4256 83° East 431 496 27,400 960 Climbing Houston Center
03:51PM 30.1186 -93.2903 82° East 433 498 28,700 720 Climbing Houston Center
03:52PM 30.1392 -93.1217 82° East 444 511 29,000 900 Climbing Houston Center
03:53PM 30.1744 -92.9817 74° East 447 514 30,600 1,560 Climbing Houston Center
03:54PM 30.2361 -92.8692 58° Northeast 429 494 32,300 1,500 Climbing Houston Center
03:55PM 30.2972 -92.7589 57° Northeast 417 480 33,800 1,140 Climbing Houston Center
03:56PM 30.3569 -92.6503 57° Northeast 406 467 34,700 720 Climbing Houston Center
03:57PM 30.4172 -92.5414 57° Northeast 404 465 35,300 780 Climbing Houston Center
03:58PM 30.4906 -92.4067 58° Northeast 407 468 36,300 720 Climbing Houston Center
03:59PM 30.5503 -92.2981 57° Northeast 405 466 36,900 300 Climbing Houston Center
04:00PM 30.6106 -92.1881 57° Northeast 405 466 37,000  Climbing Houston Center
04:01PM 30.6742 -92.0722 57° Northeast 420 483 37,000  Level Houston Center
04:02PM 30.7406 -91.9511 57° Northeast 437 503 37,000  Level Houston Center
04:03PM 30.8214 -91.8008 58° Northeast 448 516 37,000  Level Houston Center
04:05PM 30.8911 -91.6703 58° Northeast 461 531 37,000  Level Houston Center
04:06PM 30.9636 -91.5378 57° Northeast 477 549 37,000  Level Houston Center
04:07PM 31.0375 -91.4011 58° Northeast 489 563 37,000  Level Houston Center
04:08PM 31.1094 -91.2650 58° Northeast 491 565 37,000  Level Houston Center
04:09PM 31.1814 -91.1303 58° Northeast 490 564 37,000  Level Houston Center
04:10PM 31.2533 -90.9944 58° Northeast 491 565 37,000  Level Houston Center
04:11PM 31.3256 -90.8581 58° Northeast 491 565 37,000  Level Houston Center
04:12PM 31.4103 -90.6947 59° Northeast 490 564 37,000  Level Houston Center
04:13PM 31.4831 -90.5581 58° Northeast 493 567 37,000  Level Houston Center
04:14PM 31.5539 -90.4206 59° Northeast 491 565 37,000  Level Houston Center
04:15PM 31.6267 -90.2825 58° Northeast 494 568 37,000  Level Houston Center
04:16PM 31.6975 -90.1444 59° Northeast 492 566 37,000  Level Houston Center
04:17PM 31.7531 -90.0397 58° Northeast 490 564 37,000  Level Memphis Center
04:18PM 31.8339 -89.9172 52° Northeast 485 558 37,000  Level Memphis Center
04:19PM 31.9253 -89.7944 49° Northeast 485 558 37,000  Level Memphis Center
04:20PM 32.0125 -89.6739 50° Northeast 485 558 37,000  Level Memphis Center
04:21PM 32.1097 -89.5431 49° Northeast 479 551 37,000  Level Memphis Center
04:22PM 32.1967 -89.4194 50° Northeast 479 551 37,000  Level Memphis Center
04:23PM 32.2853 -89.3006 49° Northeast 479 551 37,000  Level Memphis Center
04:24PM 32.3719 -89.1792 50° Northeast 479 551 37,000  Level Memphis Center
04:25PM 32.4583 -89.0597 49° Northeast 479 551 37,000  Level Memphis Center
04:26PM 32.5469 -88.9378 49° Northeast 479 551 37,000  Level Memphis Center
04:27PM 32.6311 -88.8156 51° Northeast 479 551 37,000  Level Memphis Center
04:28PM 32.7192 -88.6956 49° Northeast 479 551 37,000  Level Memphis Center
04:29PM 32.8053 -88.5728 50° Northeast 479 551 37,000  Level Memphis Center
04:30PM 32.8931 -88.4497 50° Northeast 479 551 37,000  Level Memphis Center
04:31PM 32.9767 -88.3292 50° Northeast 479 551 37,000  Level Memphis Center
04:32PM 33.0622 -88.2033 51° Northeast 479 551 37,000  Level Memphis Center
04:34PM 33.2528 -87.9286 50° Northeast 487 560 37,000  Level Atlanta Center
04:35PM 33.3381 -87.8033 51° Northeast 487 560 37,000  Level Atlanta Center
04:36PM 33.4253 -87.6800 50° Northeast 487 560 37,000  Level Atlanta Center
04:37PM 33.5103 -87.5542 51° Northeast 482 555 37,000  Level Atlanta Center
04:38PM 33.5972 -87.4281 50° Northeast 482 555 37,000  Level Atlanta Center
04:39PM 33.6844 -87.2992 51° Northeast 482 555 37,000  Level Atlanta Center
04:40PM 33.7711 -87.1725 51° Northeast 482 555 37,000  Level Atlanta Center
04:41PM 33.8578 -87.0481 50° Northeast 482 555 37,000  Level Atlanta Center
04:42PM 33.9356 -86.9281 52° Northeast 489 563 37,000  Level Atlanta Center
04:43PM 34.0242 -86.8008 50° Northeast 489 563 37,000  Level Atlanta Center
04:44PM 34.1106 -86.6731 51° Northeast 489 563 37,000  Level Atlanta Center
04:45PM 34.1989 -86.5428 51° Northeast 489 563 37,000  Level Atlanta Center
04:46PM 34.2869 -86.4097 51° Northeast 494 568 37,000  Level Atlanta Center
04:47PM 34.3750 -86.2811 50° Northeast 494 568 37,000  Level Atlanta Center
04:48PM 34.4608 -86.1475 52° Northeast 494 568 37,000  Level Atlanta Center
04:49PM 34.5486 -86.0161 51° Northeast 494 568 37,000  Level Atlanta Center
04:50PM 34.6361 -85.8867 51° Northeast 494 568 37,000  Level Atlanta Center
04:51PM 34.7214 -85.7547 52° Northeast 494 568 37,000  Level Atlanta Center
04:52PM 34.8067 -85.6225 52° Northeast 489 563 37,000  Level Atlanta Center
04:53PM 34.8939 -85.4872 52° Northeast 494 568 37,000  Level Atlanta Center
04:54PM 34.9811 -85.3544 51° Northeast 494 568 37,000  Level Atlanta Center
04:55PM 35.0658 -85.2214 52° Northeast 500 575 37,000  Level Atlanta Center
04:56PM 35.1547 -85.0853 51° Northeast 500 575 37,000  Level Atlanta Center
04:57PM 35.2414 -84.9492 52° Northeast 505 581 37,000  Level Atlanta Center
04:58PM 35.3278 -84.8153 52° Northeast 510 587 37,000  Level Atlanta Center
04:59PM 35.4142 -84.6758 53° Northeast 510 587 37,000  Level Atlanta Center
05:00PM 35.5025 -84.5389 52° Northeast 510 587 37,000  Level Atlanta Center
05:01PM 35.5906 -84.4014 52° Northeast 510 587 37,000  Level Atlanta Center
05:02PM 35.6764 -84.2636 52° Northeast 510 587 37,000  Level Atlanta Center
05:03PM 35.7642 -84.1231 52° Northeast 510 587 37,000  Level Atlanta Center
05:04PM 35.8497 -83.9850 53° Northeast 510 587 37,000  Level Atlanta Center
05:05PM 35.9517 -83.8642 44° Northeast 503 579 37,000  Level Atlanta Center
05:07PM 36.2458 -83.6786 27° Northeast 499 574 37,000  Level Indianapolis Center
05:08PM 36.3692 -83.5994 27° Northeast 498 573 37,000  Level Indianapolis Center
05:09PM 36.4922 -83.5203 27° Northeast 499 574 37,000  Level Indianapolis Center
05:10PM 36.6406 -83.4281 27° Northeast 500 575 37,000  Level Indianapolis Center
05:11PM 36.7644 -83.3478 27° Northeast 498 573 37,000  Level Indianapolis Center
05:12PM 36.8881 -83.2678 27° Northeast 495 570 37,000  Level Indianapolis Center
05:13PM 37.0131 -83.1881 27° Northeast 494 568 37,000  Level Indianapolis Center
05:14PM 37.1386 -83.1067 27° Northeast 500 575 37,000  Level Indianapolis Center
05:15PM 37.2617 -83.0250 28° Northeast 494 568 37,000  Level Indianapolis Center
05:16PM 37.3867 -82.9450 27° Northeast 497 572 37,000  Level Indianapolis Center
05:17PM 37.5089 -82.8633 28° Northeast 494 568 37,000  Level Indianapolis Center
05:18PM 37.6331 -82.7808 28° Northeast 502 578 37,000  Level Indianapolis Center
05:19PM 37.7544 -82.6986 28° Northeast 497 572 37,000  Level Indianapolis Center
05:20PM 37.8775 -82.6186 27° Northeast 496 571 37,000 -60 Level Indianapolis Center
05:22PM 38.0203 -82.5231 28° Northeast 496 571 36,900 -360 Descending Indianapolis Center
05:23PM 38.1242 -82.4539 28° Northeast 502 578 36,300 -480 Descending Indianapolis Center
05:24PM 38.2742 -82.3506 28° Northeast 507 583 36,000 -540 Descending Indianapolis Center
05:25PM 38.3997 -82.2667 28° Northeast 509 586 35,200 -960 Descending Indianapolis Center
05:26PM 38.5247 -82.1719 31° Northeast 517 595 34,100 -1,140 Descending Indianapolis Center
05:27PM 38.6392 -82.0731 34° Northeast 497 572 32,900 -1,200 Descending Indianapolis Center
05:28PM 38.7533 -81.9742 34° Northeast 489 563 31,700 -1,260 Descending Indianapolis Center
05:29PM 38.8717 -81.8706 34° Northeast 505 581 30,400 -1,320 Descending Indianapolis Center
05:30PM 38.9883 -81.7678 34° Northeast 503 579 29,000 -1,440 Descending Indianapolis Center
05:31PM 39.1056 -81.6658 34° Northeast 502 578 27,500 -1,560 Descending Indianapolis Center
05:32PM 39.2261 -81.5581 35° Northeast 520 598 25,900 -1,620 Descending Indianapolis Center
05:33PM 39.3419 -81.4567 34° Northeast 505 581 24,200 -1,800 Descending Indianapolis Center
05:34PM 39.4539 -81.3567 35° Northeast 490 564 22,300 -1,920 Descending Indianapolis Center
05:34PM 39.5083 -81.3094 34° Northeast 486 559 21,400 -900 Descending Cleveland Center
05:35PM 39.6153 -81.2108 35° Northeast 486 559 21,000 -720 Descending Cleveland Center
05:36PM 39.7178 -81.1094 37° Northeast 472 543 20,000 -1,500 Descending Cleveland Center
05:37PM 39.8183 -81.0100 37° Northeast 459 528 18,000 -2,280 Descending Cleveland Center
05:38PM 39.9167 -80.9161 36° Northeast 448 516 15,500 -2,580 Descending Cleveland Center
05:39PM 40.0086 -80.8217 38° Northeast 431 496 12,900 -2,400 Descending Cleveland Center
05:40PM 40.0836 -80.7186 46° Northeast 409 471 10,700 -1,500 Descending Cleveland Center
05:41PM 40.1567 -80.6211 46° Northeast 383 441 10,000 -360 Descending Cleveland Center
05:42PM 40.2297 -80.5206 46° Northeast 377 434 10,000  Level Cleveland Center
05:43PM 40.3006 -80.4253 46° Northeast 372 428 10,000 -540 Level Cleveland Center
05:44PM 40.3317 -80.3108 70° East 317 365 9,000 -1,380 Descending Cleveland Center
05:45PM 40.3564 -80.2069 73° East 298 343 7,300 -1,680 Descending Cleveland Center
05:46PM 40.3756 -80.1122 75° East 280 322 5,700 -1,620 Descending FAA TRACON SMA TRACON (SMA)
05:47PM 40.3825 -80.0833 72° East 275 316 5,200 -1,680 Descending FAA TRACON SMA TRACON (SMA)
05:47PM 40.4011 -80.0583 46° Northeast 246 283 4,600 -1,740 Descending FAA TRACON SMA TRACON (SMA)